sensor_id;sensor_type;location;lat;lon;timestamp;P1;durP1;ratioP1;P2;durP2;ratioP2
55065;SDS011;40964;42.114;24.220;2022-09-09T00:03:35;13.05;;;7.15;;
55065;SDS011;40964;42.114;24.220;2022-09-09T00:11:29;10.82;;;7.05;;
55065;SDS011;40964;42.114;24.220;2022-09-09T00:14:08;11.13;;;7.10;;
55065;SDS011;40964;42.114;24.220;2022-09-09T00:16:59;10.27;;;7.35;;
55065;SDS011;40964;42.114;24.220;2022-09-09T00:19:32;11.45;;;7.75;;
55065;SDS011;40964;42.114;24.220;2022-09-09T00:24:49;11.80;;;7.00;;
55065;SDS011;40964;42.114;24.220;2022-09-09T00:30:13;10.52;;;7.10;;
55065;SDS011;40964;42.114;24.220;2022-09-09T00:32:41;11.98;;;7.13;;
55065;SDS011;40964;42.114;24.220;2022-09-09T00:37:35;14.93;;;8.15;;
55065;SDS011;40964;42.114;24.220;2022-09-09T00:40:01;16.08;;;8.90;;
55065;SDS011;40964;42.114;24.220;2022-09-09T00:42:42;18.90;;;9.50;;
55065;SDS011;40964;42.114;24.220;2022-09-09T00:47:43;14.02;;;8.68;;
55065;SDS011;40964;42.114;24.220;2022-09-09T00:56:21;10.32;;;7.28;;
55065;SDS011;40964;42.114;24.220;2022-09-09T00:58:27;13.27;;;8.13;;
55065;SDS011;40964;42.114;24.220;2022-09-09T01:01:11;11.07;;;7.40;;
55065;SDS011;40964;42.114;24.220;2022-09-09T01:03:40;14.93;;;7.55;;
55065;SDS011;40964;42.114;24.220;2022-09-09T01:17:17;11.73;;;7.55;;
55065;SDS011;40964;42.114;24.220;2022-09-09T01:20:01;10.88;;;7.15;;
55065;SDS011;40964;42.114;24.220;2022-09-09T01:22:36;10.57;;;7.38;;
55065;SDS011;40964;42.114;24.220;2022-09-09T01:25:16;11.93;;;8.05;;
55065;SDS011;40964;42.114;24.220;2022-09-09T01:27:54;13.15;;;7.72;;
55065;SDS011;40964;42.114;24.220;2022-09-09T01:30:22;11.10;;;7.32;;
55065;SDS011;40964;42.114;24.220;2022-09-09T01:32:49;14.48;;;9.05;;
55065;SDS011;40964;42.114;24.220;2022-09-09T01:38:04;12.57;;;8.07;;
55065;SDS011;40964;42.114;24.220;2022-09-09T01:40:30;14.32;;;8.27;;
55065;SDS011;40964;42.114;24.220;2022-09-09T01:42:55;12.00;;;7.60;;
55065;SDS011;40964;42.114;24.220;2022-09-09T01:45:21;12.63;;;7.72;;
55065;SDS011;40964;42.114;24.220;2022-09-09T01:47:47;13.02;;;8.23;;
55065;SDS011;40964;42.114;24.220;2022-09-09T01:50:14;13.70;;;8.15;;
55065;SDS011;40964;42.114;24.220;2022-09-09T01:52:41;12.13;;;7.95;;
55065;SDS011;40964;42.114;24.220;2022-09-09T01:55:11;15.38;;;8.65;;
55065;SDS011;40964;42.114;24.220;2022-09-09T01:57:47;11.00;;;7.90;;
55065;SDS011;40964;42.114;24.220;2022-09-09T02:00:21;14.18;;;8.57;;
55065;SDS011;40964;42.114;24.220;2022-09-09T02:02:49;11.05;;;7.78;;
55065;SDS011;40964;42.114;24.220;2022-09-09T02:05:39;11.40;;;7.38;;
55065;SDS011;40964;42.114;24.220;2022-09-09T02:08:11;11.43;;;8.13;;
55065;SDS011;40964;42.114;24.220;2022-09-09T02:13:40;13.95;;;7.90;;
55065;SDS011;40964;42.114;24.220;2022-09-09T02:16:10;13.32;;;8.15;;
55065;SDS011;40964;42.114;24.220;2022-09-09T02:18:42;12.82;;;7.80;;
55065;SDS011;40964;42.114;24.220;2022-09-09T02:21:13;13.15;;;7.80;;
55065;SDS011;40964;42.114;24.220;2022-09-09T02:23:41;11.13;;;7.80;;
55065;SDS011;40964;42.114;24.220;2022-09-09T02:26:08;11.75;;;8.00;;
55065;SDS011;40964;42.114;24.220;2022-09-09T02:28:38;12.60;;;7.70;;
55065;SDS011;40964;42.114;24.220;2022-09-09T02:31:05;10.05;;;7.43;;
55065;SDS011;40964;42.114;24.220;2022-09-09T02:33:35;12.40;;;7.55;;
55065;SDS011;40964;42.114;24.220;2022-09-09T02:36:05;11.52;;;7.57;;
55065;SDS011;40964;42.114;24.220;2022-09-09T02:38:35;12.38;;;7.70;;
55065;SDS011;40964;42.114;24.220;2022-09-09T02:41:05;12.07;;;7.82;;
55065;SDS011;40964;42.114;24.220;2022-09-09T02:43:34;12.45;;;7.45;;
55065;SDS011;40964;42.114;24.220;2022-09-09T02:48:47;12.73;;;8.07;;
55065;SDS011;40964;42.114;24.220;2022-09-09T02:54:07;13.27;;;7.80;;
55065;SDS011;40964;42.114;24.220;2022-09-09T02:56:55;10.75;;;7.55;;
55065;SDS011;40964;42.114;24.220;2022-09-09T02:59:35;13.77;;;7.45;;
55065;SDS011;40964;42.114;24.220;2022-09-09T03:02:01;14.10;;;7.97;;
55065;SDS011;40964;42.114;24.220;2022-09-09T03:04:26;11.40;;;7.63;;
55065;SDS011;40964;42.114;24.220;2022-09-09T03:06:52;17.23;;;8.75;;
55065;SDS011;40964;42.114;24.220;2022-09-09T03:09:17;15.10;;;8.00;;
55065;SDS011;40964;42.114;24.220;2022-09-09T03:11:43;14.85;;;8.73;;
55065;SDS011;40964;42.114;24.220;2022-09-09T03:14:09;10.43;;;7.57;;
55065;SDS011;40964;42.114;24.220;2022-09-09T03:16:36;13.23;;;8.27;;
55065;SDS011;40964;42.114;24.220;2022-09-09T03:19:02;11.18;;;7.63;;
55065;SDS011;40964;42.114;24.220;2022-09-09T03:21:28;12.63;;;7.47;;
55065;SDS011;40964;42.114;24.220;2022-09-09T03:23:53;12.25;;;7.85;;
55065;SDS011;40964;42.114;24.220;2022-09-09T03:26:19;11.80;;;8.18;;
55065;SDS011;40964;42.114;24.220;2022-09-09T03:28:45;14.57;;;9.00;;
55065;SDS011;40964;42.114;24.220;2022-09-09T03:31:10;13.05;;;8.10;;
55065;SDS011;40964;42.114;24.220;2022-09-09T03:33:36;13.02;;;7.90;;
55065;SDS011;40964;42.114;24.220;2022-09-09T03:36:03;14.77;;;7.95;;
55065;SDS011;40964;42.114;24.220;2022-09-09T03:38:29;12.32;;;8.05;;
55065;SDS011;40964;42.114;24.220;2022-09-09T03:40:56;14.00;;;8.23;;
55065;SDS011;40964;42.114;24.220;2022-09-09T03:43:25;16.85;;;8.55;;
55065;SDS011;40964;42.114;24.220;2022-09-09T03:45:51;13.77;;;8.05;;
55065;SDS011;40964;42.114;24.220;2022-09-09T03:48:18;10.60;;;7.35;;
55065;SDS011;40964;42.114;24.220;2022-09-09T03:50:47;15.55;;;8.07;;
55065;SDS011;40964;42.114;24.220;2022-09-09T03:53:14;15.25;;;8.80;;
55065;SDS011;40964;42.114;24.220;2022-09-09T03:55:47;12.48;;;8.10;;
55065;SDS011;40964;42.114;24.220;2022-09-09T04:00:41;15.50;;;8.27;;
55065;SDS011;40964;42.114;24.220;2022-09-09T04:03:10;13.13;;;8.10;;
55065;SDS011;40964;42.114;24.220;2022-09-09T04:05:36;11.73;;;7.45;;
55065;SDS011;40964;42.114;24.220;2022-09-09T04:08:05;13.00;;;7.85;;
55065;SDS011;40964;42.114;24.220;2022-09-09T04:10:33;13.88;;;8.40;;
55065;SDS011;40964;42.114;24.220;2022-09-09T04:13:01;13.45;;;7.72;;
55065;SDS011;40964;42.114;24.220;2022-09-09T04:15:27;10.70;;;7.30;;
55065;SDS011;40964;42.114;24.220;2022-09-09T04:17:53;13.05;;;8.60;;
55065;SDS011;40964;42.114;24.220;2022-09-09T04:20:18;13.88;;;8.35;;
55065;SDS011;40964;42.114;24.220;2022-09-09T04:22:44;14.57;;;8.18;;
55065;SDS011;40964;42.114;24.220;2022-09-09T04:25:10;12.73;;;8.43;;
55065;SDS011;40964;42.114;24.220;2022-09-09T04:27:35;13.07;;;8.35;;
55065;SDS011;40964;42.114;24.220;2022-09-09T04:30:01;15.23;;;8.18;;
55065;SDS011;40964;42.114;24.220;2022-09-09T04:32:27;15.18;;;7.78;;
55065;SDS011;40964;42.114;24.220;2022-09-09T04:34:52;16.23;;;8.50;;
55065;SDS011;40964;42.114;24.220;2022-09-09T04:37:18;13.65;;;8.18;;
55065;SDS011;40964;42.114;24.220;2022-09-09T04:39:44;18.67;;;8.95;;
55065;SDS011;40964;42.114;24.220;2022-09-09T04:42:10;22.98;;;8.77;;
55065;SDS011;40964;42.114;24.220;2022-09-09T04:44:36;16.08;;;7.97;;
55065;SDS011;40964;42.114;24.220;2022-09-09T04:47:02;24.55;;;8.23;;
55065;SDS011;40964;42.114;24.220;2022-09-09T04:49:27;17.65;;;8.27;;
55065;SDS011;40964;42.114;24.220;2022-09-09T04:51:53;15.02;;;7.63;;
55065;SDS011;40964;42.114;24.220;2022-09-09T04:54:18;14.10;;;8.13;;
55065;SDS011;40964;42.114;24.220;2022-09-09T04:56:44;12.00;;;7.47;;
55065;SDS011;40964;42.114;24.220;2022-09-09T04:59:09;13.75;;;8.15;;
55065;SDS011;40964;42.114;24.220;2022-09-09T05:01:35;15.63;;;7.60;;
55065;SDS011;40964;42.114;24.220;2022-09-09T05:04:01;12.20;;;7.65;;
55065;SDS011;40964;42.114;24.220;2022-09-09T05:06:27;11.95;;;8.30;;
55065;SDS011;40964;42.114;24.220;2022-09-09T05:08:56;12.38;;;7.82;;
55065;SDS011;40964;42.114;24.220;2022-09-09T05:11:26;13.32;;;8.35;;
55065;SDS011;40964;42.114;24.220;2022-09-09T05:13:53;17.25;;;7.72;;
55065;SDS011;40964;42.114;24.220;2022-09-09T05:16:19;12.23;;;7.85;;
55065;SDS011;40964;42.114;24.220;2022-09-09T05:18:46;10.93;;;8.02;;
55065;SDS011;40964;42.114;24.220;2022-09-09T05:21:12;13.25;;;8.52;;
55065;SDS011;40964;42.114;24.220;2022-09-09T05:23:39;12.65;;;8.07;;
55065;SDS011;40964;42.114;24.220;2022-09-09T05:26:05;12.75;;;7.80;;
55065;SDS011;40964;42.114;24.220;2022-09-09T05:28:33;12.23;;;7.85;;
55065;SDS011;40964;42.114;24.220;2022-09-09T05:31:01;13.70;;;8.23;;
55065;SDS011;40964;42.114;24.220;2022-09-09T05:33:29;12.15;;;8.05;;
55065;SDS011;40964;42.114;24.220;2022-09-09T05:35:59;18.85;;;8.40;;
55065;SDS011;40964;42.114;24.220;2022-09-09T05:38:26;13.02;;;7.50;;
55065;SDS011;40964;42.114;24.220;2022-09-09T05:40:52;10.43;;;7.35;;
55065;SDS011;40964;42.114;24.220;2022-09-09T05:43:21;8.45;;;6.80;;
55065;SDS011;40964;42.114;24.220;2022-09-09T05:45:47;8.77;;;6.70;;
55065;SDS011;40964;42.114;24.220;2022-09-09T05:48:14;9.10;;;6.28;;
55065;SDS011;40964;42.114;24.220;2022-09-09T05:50:41;12.73;;;7.07;;
55065;SDS011;40964;42.114;24.220;2022-09-09T05:53:07;10.13;;;5.60;;
55065;SDS011;40964;42.114;24.220;2022-09-09T05:55:34;8.02;;;5.47;;
55065;SDS011;40964;42.114;24.220;2022-09-09T05:57:59;9.23;;;5.35;;
55065;SDS011;40964;42.114;24.220;2022-09-09T06:00:25;6.30;;;4.82;;
55065;SDS011;40964;42.114;24.220;2022-09-09T06:02:54;8.05;;;5.47;;
55065;SDS011;40964;42.114;24.220;2022-09-09T06:05:19;11.05;;;5.57;;
55065;SDS011;40964;42.114;24.220;2022-09-09T06:07:45;9.23;;;6.20;;
55065;SDS011;40964;42.114;24.220;2022-09-09T06:10:11;9.50;;;6.20;;
55065;SDS011;40964;42.114;24.220;2022-09-09T06:12:39;8.65;;;4.10;;
55065;SDS011;40964;42.114;24.220;2022-09-09T06:15:05;7.47;;;5.18;;
55065;SDS011;40964;42.114;24.220;2022-09-09T06:17:31;8.90;;;4.43;;
55065;SDS011;40964;42.114;24.220;2022-09-09T06:19:56;10.05;;;5.45;;
55065;SDS011;40964;42.114;24.220;2022-09-09T06:22:22;6.53;;;4.35;;
55065;SDS011;40964;42.114;24.220;2022-09-09T06:24:47;5.75;;;4.70;;
55065;SDS011;40964;42.114;24.220;2022-09-09T06:27:13;8.45;;;5.53;;
55065;SDS011;40964;42.114;24.220;2022-09-09T06:29:38;9.15;;;6.30;;
55065;SDS011;40964;42.114;24.220;2022-09-09T06:32:04;13.57;;;8.23;;
55065;SDS011;40964;42.114;24.220;2022-09-09T06:34:30;6.38;;;5.50;;
55065;SDS011;40964;42.114;24.220;2022-09-09T06:36:55;10.05;;;6.30;;
55065;SDS011;40964;42.114;24.220;2022-09-09T06:39:22;7.82;;;5.10;;
55065;SDS011;40964;42.114;24.220;2022-09-09T06:41:48;7.45;;;5.63;;
55065;SDS011;40964;42.114;24.220;2022-09-09T06:44:14;7.03;;;5.35;;
55065;SDS011;40964;42.114;24.220;2022-09-09T06:46:40;10.98;;;5.45;;
55065;SDS011;40964;42.114;24.220;2022-09-09T06:49:07;6.28;;;4.45;;
55065;SDS011;40964;42.114;24.220;2022-09-09T06:51:34;6.30;;;4.55;;
55065;SDS011;40964;42.114;24.220;2022-09-09T06:54:02;6.15;;;4.53;;
55065;SDS011;40964;42.114;24.220;2022-09-09T06:56:33;6.07;;;4.38;;
55065;SDS011;40964;42.114;24.220;2022-09-09T06:59:01;6.25;;;4.50;;
55065;SDS011;40964;42.114;24.220;2022-09-09T07:01:32;7.57;;;5.00;;
55065;SDS011;40964;42.114;24.220;2022-09-09T07:04:00;5.43;;;4.40;;
55065;SDS011;40964;42.114;24.220;2022-09-09T07:06:31;7.90;;;4.85;;
55065;SDS011;40964;42.114;24.220;2022-09-09T07:09:17;7.07;;;5.32;;
55065;SDS011;40964;42.114;24.220;2022-09-09T07:11:46;6.35;;;5.03;;
55065;SDS011;40964;42.114;24.220;2022-09-09T07:14:13;8.77;;;5.38;;
55065;SDS011;40964;42.114;24.220;2022-09-09T07:16:43;9.75;;;5.20;;
55065;SDS011;40964;42.114;24.220;2022-09-09T07:19:11;6.43;;;4.50;;
55065;SDS011;40964;42.114;24.220;2022-09-09T07:21:37;6.93;;;4.82;;
55065;SDS011;40964;42.114;24.220;2022-09-09T07:24:04;7.03;;;5.38;;
55065;SDS011;40964;42.114;24.220;2022-09-09T07:26:32;5.95;;;4.65;;
55065;SDS011;40964;42.114;24.220;2022-09-09T07:28:58;6.85;;;5.30;;
55065;SDS011;40964;42.114;24.220;2022-09-09T07:31:25;9.73;;;4.90;;
55065;SDS011;40964;42.114;24.220;2022-09-09T07:33:58;8.52;;;5.90;;
55065;SDS011;40964;42.114;24.220;2022-09-09T07:36:28;8.23;;;5.63;;
55065;SDS011;40964;42.114;24.220;2022-09-09T07:39:06;10.50;;;5.30;;
55065;SDS011;40964;42.114;24.220;2022-09-09T07:41:35;5.63;;;4.80;;
55065;SDS011;40964;42.114;24.220;2022-09-09T07:44:09;9.88;;;5.47;;
55065;SDS011;40964;42.114;24.220;2022-09-09T07:46:42;13.68;;;5.90;;
55065;SDS011;40964;42.114;24.220;2022-09-09T07:49:10;7.57;;;5.38;;
55065;SDS011;40964;42.114;24.220;2022-09-09T07:51:37;8.20;;;5.40;;
55065;SDS011;40964;42.114;24.220;2022-09-09T07:54:06;9.30;;;5.15;;
55065;SDS011;40964;42.114;24.220;2022-09-09T07:56:36;9.55;;;5.50;;
55065;SDS011;40964;42.114;24.220;2022-09-09T07:59:04;6.80;;;5.45;;
55065;SDS011;40964;42.114;24.220;2022-09-09T08:01:35;8.13;;;5.80;;
55065;SDS011;40964;42.114;24.220;2022-09-09T08:04:05;7.95;;;5.30;;
55065;SDS011;40964;42.114;24.220;2022-09-09T08:06:40;10.73;;;5.70;;
55065;SDS011;40964;42.114;24.220;2022-09-09T08:09:08;7.20;;;5.85;;
55065;SDS011;40964;42.114;24.220;2022-09-09T08:11:34;8.85;;;5.53;;
55065;SDS011;40964;42.114;24.220;2022-09-09T08:14:01;6.93;;;5.68;;
55065;SDS011;40964;42.114;24.220;2022-09-09T08:16:31;8.30;;;5.18;;
55065;SDS011;40964;42.114;24.220;2022-09-09T08:18:58;11.68;;;4.85;;
55065;SDS011;40964;42.114;24.220;2022-09-09T08:21:26;6.80;;;5.18;;
55065;SDS011;40964;42.114;24.220;2022-09-09T08:23:54;6.63;;;5.35;;
55065;SDS011;40964;42.114;24.220;2022-09-09T08:26:22;9.30;;;5.00;;
55065;SDS011;40964;42.114;24.220;2022-09-09T08:28:50;8.27;;;4.85;;
55065;SDS011;40964;42.114;24.220;2022-09-09T08:31:18;8.20;;;5.30;;
55065;SDS011;40964;42.114;24.220;2022-09-09T08:33:46;9.63;;;5.57;;
55065;SDS011;40964;42.114;24.220;2022-09-09T08:36:13;6.90;;;5.43;;
55065;SDS011;40964;42.114;24.220;2022-09-09T08:38:47;8.68;;;4.90;;
55065;SDS011;40964;42.114;24.220;2022-09-09T08:46:45;6.07;;;5.10;;
55065;SDS011;40964;42.114;24.220;2022-09-09T08:52:16;8.18;;;4.88;;
55065;SDS011;40964;42.114;24.220;2022-09-09T08:54:54;9.63;;;5.35;;
55065;SDS011;40964;42.114;24.220;2022-09-09T08:57:25;8.20;;;5.25;;
55065;SDS011;40964;42.114;24.220;2022-09-09T08:59:54;8.10;;;5.47;;
55065;SDS011;40964;42.114;24.220;2022-09-09T09:02:24;5.80;;;5.13;;
55065;SDS011;40964;42.114;24.220;2022-09-09T09:04:58;8.07;;;5.30;;
55065;SDS011;40964;42.114;24.220;2022-09-09T09:07:45;6.75;;;5.13;;
55065;SDS011;40964;42.114;24.220;2022-09-09T09:10:51;9.10;;;5.63;;
55065;SDS011;40964;42.114;24.220;2022-09-09T09:19:15;11.45;;;4.82;;
55065;SDS011;40964;42.114;24.220;2022-09-09T09:21:47;12.00;;;4.70;;
55065;SDS011;40964;42.114;24.220;2022-09-09T09:26:50;7.15;;;4.93;;
55065;SDS011;40964;42.114;24.220;2022-09-09T09:29:17;6.35;;;4.78;;
55065;SDS011;40964;42.114;24.220;2022-09-09T09:31:52;6.40;;;4.65;;
55065;SDS011;40964;42.114;24.220;2022-09-09T09:34:21;5.63;;;4.90;;
55065;SDS011;40964;42.114;24.220;2022-09-09T09:36:55;7.22;;;4.78;;
55065;SDS011;40964;42.114;24.220;2022-09-09T09:39:23;6.40;;;4.85;;
55065;SDS011;40964;42.114;24.220;2022-09-09T09:41:49;8.13;;;4.90;;
55065;SDS011;40964;42.114;24.220;2022-09-09T09:44:22;5.78;;;4.82;;
55065;SDS011;40964;42.114;24.220;2022-09-09T09:47:14;6.15;;;4.85;;
55065;SDS011;40964;42.114;24.220;2022-09-09T09:49:54;6.50;;;4.95;;
55065;SDS011;40964;42.114;24.220;2022-09-09T09:52:23;6.43;;;4.78;;
55065;SDS011;40964;42.114;24.220;2022-09-09T09:54:51;6.43;;;5.00;;
55065;SDS011;40964;42.114;24.220;2022-09-09T09:57:18;8.30;;;5.13;;
55065;SDS011;40964;42.114;24.220;2022-09-09T10:02:31;6.70;;;4.60;;
55065;SDS011;40964;42.114;24.220;2022-09-09T10:05:05;5.70;;;4.80;;
55065;SDS011;40964;42.114;24.220;2022-09-09T10:07:38;6.50;;;5.40;;
55065;SDS011;40964;42.114;24.220;2022-09-09T10:10:04;6.70;;;4.35;;
55065;SDS011;40964;42.114;24.220;2022-09-09T10:18:19;6.10;;;4.90;;
55065;SDS011;40964;42.114;24.220;2022-09-09T10:26:50;9.02;;;5.00;;
55065;SDS011;40964;42.114;24.220;2022-09-09T10:35:14;10.48;;;5.35;;
55065;SDS011;40964;42.114;24.220;2022-09-09T10:59:58;5.68;;;4.63;;
55065;SDS011;40964;42.114;24.220;2022-09-09T11:02:31;6.18;;;5.20;;
55065;SDS011;40964;42.114;24.220;2022-09-09T11:05:08;6.95;;;5.40;;
55065;SDS011;40964;42.114;24.220;2022-09-09T11:10:23;6.93;;;5.18;;
55065;SDS011;40964;42.114;24.220;2022-09-09T11:12:56;6.75;;;5.10;;
55065;SDS011;40964;42.114;24.220;2022-09-09T11:15:40;7.07;;;5.40;;
55065;SDS011;40964;42.114;24.220;2022-09-09T11:18:11;5.50;;;4.70;;
55065;SDS011;40964;42.114;24.220;2022-09-09T11:20:43;13.63;;;4.97;;
55065;SDS011;40964;42.114;24.220;2022-09-09T11:23:17;5.22;;;4.72;;
55065;SDS011;40964;42.114;24.220;2022-09-09T11:25:52;7.30;;;5.10;;
55065;SDS011;40964;42.114;24.220;2022-09-09T11:28:31;7.43;;;5.35;;
55065;SDS011;40964;42.114;24.220;2022-09-09T11:33:58;7.13;;;5.28;;
55065;SDS011;40964;42.114;24.220;2022-09-09T11:37:00;7.22;;;4.82;;
55065;SDS011;40964;42.114;24.220;2022-09-09T11:42:21;11.15;;;5.95;;
55065;SDS011;40964;42.114;24.220;2022-09-09T11:44:48;7.93;;;5.53;;
55065;SDS011;40964;42.114;24.220;2022-09-09T11:49:54;7.18;;;5.47;;
55065;SDS011;40964;42.114;24.220;2022-09-09T11:52:25;8.52;;;5.20;;
55065;SDS011;40964;42.114;24.220;2022-09-09T11:55:08;7.88;;;5.85;;
55065;SDS011;40964;42.114;24.220;2022-09-09T11:57:43;6.80;;;5.28;;
55065;SDS011;40964;42.114;24.220;2022-09-09T12:00:27;8.45;;;5.57;;
55065;SDS011;40964;42.114;24.220;2022-09-09T12:02:54;9.02;;;5.55;;
55065;SDS011;40964;42.114;24.220;2022-09-09T12:05:20;8.73;;;6.10;;
55065;SDS011;40964;42.114;24.220;2022-09-09T12:07:55;9.18;;;4.93;;
55065;SDS011;40964;42.114;24.220;2022-09-09T12:12:49;7.72;;;5.40;;
55065;SDS011;40964;42.114;24.220;2022-09-09T12:15:22;5.45;;;4.93;;
55065;SDS011;40964;42.114;24.220;2022-09-09T12:17:53;6.13;;;4.97;;
55065;SDS011;40964;42.114;24.220;2022-09-09T12:20:31;7.68;;;5.68;;
55065;SDS011;40964;42.114;24.220;2022-09-09T12:28:27;9.85;;;5.25;;
55065;SDS011;40964;42.114;24.220;2022-09-09T12:31:26;7.07;;;5.25;;
55065;SDS011;40964;42.114;24.220;2022-09-09T12:34:09;7.57;;;5.30;;
55065;SDS011;40964;42.114;24.220;2022-09-09T12:36:35;10.40;;;5.68;;
55065;SDS011;40964;42.114;24.220;2022-09-09T12:39:18;8.23;;;5.95;;
55065;SDS011;40964;42.114;24.220;2022-09-09T12:41:55;11.25;;;5.57;;
55065;SDS011;40964;42.114;24.220;2022-09-09T12:44:22;8.57;;;5.60;;
55065;SDS011;40964;42.114;24.220;2022-09-09T12:46:49;6.85;;;5.43;;
55065;SDS011;40964;42.114;24.220;2022-09-09T12:49:35;11.10;;;5.97;;
55065;SDS011;40964;42.114;24.220;2022-09-09T12:52:05;9.13;;;6.25;;
55065;SDS011;40964;42.114;24.220;2022-09-09T12:54:51;13.38;;;7.10;;
55065;SDS011;40964;42.114;24.220;2022-09-09T12:57:17;12.15;;;6.60;;
55065;SDS011;40964;42.114;24.220;2022-09-09T12:59:43;9.30;;;5.93;;
55065;SDS011;40964;42.114;24.220;2022-09-09T13:02:18;14.65;;;8.02;;
55065;SDS011;40964;42.114;24.220;2022-09-09T13:04:48;9.38;;;6.13;;
55065;SDS011;40964;42.114;24.220;2022-09-09T13:07:15;7.50;;;5.97;;
55065;SDS011;40964;42.114;24.220;2022-09-09T13:09:42;12.52;;;6.10;;
55065;SDS011;40964;42.114;24.220;2022-09-09T13:12:19;8.32;;;5.28;;
55065;SDS011;40964;42.114;24.220;2022-09-09T13:14:53;8.82;;;5.32;;
55065;SDS011;40964;42.114;24.220;2022-09-09T13:17:24;9.05;;;6.07;;
55065;SDS011;40964;42.114;24.220;2022-09-09T13:19:54;29.80;;;9.35;;
55065;SDS011;40964;42.114;24.220;2022-09-09T13:27:36;6.68;;;5.13;;
55065;SDS011;40964;42.114;24.220;2022-09-09T13:38:13;7.28;;;5.50;;
55065;SDS011;40964;42.114;24.220;2022-09-09T13:40:40;10.00;;;5.95;;
55065;SDS011;40964;42.114;24.220;2022-09-09T13:43:10;7.80;;;5.72;;
55065;SDS011;40964;42.114;24.220;2022-09-09T13:45:51;6.35;;;5.60;;
55065;SDS011;40964;42.114;24.220;2022-09-09T13:48:19;8.68;;;5.78;;
55065;SDS011;40964;42.114;24.220;2022-09-09T13:50:53;7.35;;;5.22;;
55065;SDS011;40964;42.114;24.220;2022-09-09T13:53:23;9.63;;;6.03;;
55065;SDS011;40964;42.114;24.220;2022-09-09T13:55:48;8.15;;;5.75;;
55065;SDS011;40964;42.114;24.220;2022-09-09T13:58:16;9.85;;;5.78;;
55065;SDS011;40964;42.114;24.220;2022-09-09T14:00:44;10.23;;;6.00;;
55065;SDS011;40964;42.114;24.220;2022-09-09T14:03:09;7.97;;;5.55;;
55065;SDS011;40964;42.114;24.220;2022-09-09T14:05:35;8.93;;;5.55;;
55065;SDS011;40964;42.114;24.220;2022-09-09T14:08:03;6.55;;;5.38;;
55065;SDS011;40964;42.114;24.220;2022-09-09T14:10:30;6.93;;;6.15;;
55065;SDS011;40964;42.114;24.220;2022-09-09T14:12:56;17.00;;;6.45;;
55065;SDS011;40964;42.114;24.220;2022-09-09T14:15:21;12.73;;;6.15;;
55065;SDS011;40964;42.114;24.220;2022-09-09T14:17:47;10.68;;;5.47;;
55065;SDS011;40964;42.114;24.220;2022-09-09T14:20:13;9.10;;;6.25;;
55065;SDS011;40964;42.114;24.220;2022-09-09T14:22:40;8.73;;;5.97;;
55065;SDS011;40964;42.114;24.220;2022-09-09T14:25:06;7.88;;;5.93;;
55065;SDS011;40964;42.114;24.220;2022-09-09T14:27:32;10.30;;;6.43;;
55065;SDS011;40964;42.114;24.220;2022-09-09T14:29:58;6.78;;;5.35;;
55065;SDS011;40964;42.114;24.220;2022-09-09T14:32:25;6.97;;;5.50;;
55065;SDS011;40964;42.114;24.220;2022-09-09T14:34:50;8.70;;;5.40;;
55065;SDS011;40964;42.114;24.220;2022-09-09T14:37:16;10.00;;;5.15;;
55065;SDS011;40964;42.114;24.220;2022-09-09T14:39:43;8.85;;;6.05;;
55065;SDS011;40964;42.114;24.220;2022-09-09T14:42:12;6.75;;;5.10;;
55065;SDS011;40964;42.114;24.220;2022-09-09T14:44:38;10.82;;;5.90;;
55065;SDS011;40964;42.114;24.220;2022-09-09T14:47:07;13.23;;;5.40;;
55065;SDS011;40964;42.114;24.220;2022-09-09T14:49:34;12.88;;;6.03;;
55065;SDS011;40964;42.114;24.220;2022-09-09T14:52:00;7.55;;;5.60;;
55065;SDS011;40964;42.114;24.220;2022-09-09T14:54:26;8.05;;;6.28;;
55065;SDS011;40964;42.114;24.220;2022-09-09T14:56:51;8.52;;;5.80;;
55065;SDS011;40964;42.114;24.220;2022-09-09T14:59:17;10.20;;;6.75;;
55065;SDS011;40964;42.114;24.220;2022-09-09T15:01:42;8.65;;;6.03;;
55065;SDS011;40964;42.114;24.220;2022-09-09T15:04:10;8.40;;;6.07;;
55065;SDS011;40964;42.114;24.220;2022-09-09T15:06:37;9.43;;;6.10;;
55065;SDS011;40964;42.114;24.220;2022-09-09T15:09:04;9.80;;;6.38;;
55065;SDS011;40964;42.114;24.220;2022-09-09T15:11:32;10.57;;;6.43;;
55065;SDS011;40964;42.114;24.220;2022-09-09T15:14:03;7.63;;;5.90;;
55065;SDS011;40964;42.114;24.220;2022-09-09T15:16:29;7.40;;;6.30;;
55065;SDS011;40964;42.114;24.220;2022-09-09T15:18:57;9.25;;;6.32;;
55065;SDS011;40964;42.114;24.220;2022-09-09T15:21:25;7.18;;;6.22;;
55065;SDS011;40964;42.114;24.220;2022-09-09T15:23:59;9.23;;;6.50;;
55065;SDS011;40964;42.114;24.220;2022-09-09T15:26:25;13.60;;;7.70;;
55065;SDS011;40964;42.114;24.220;2022-09-09T15:28:52;14.38;;;7.13;;
55065;SDS011;40964;42.114;24.220;2022-09-09T15:31:24;9.63;;;6.70;;
55065;SDS011;40964;42.114;24.220;2022-09-09T15:33:55;10.00;;;6.03;;
55065;SDS011;40964;42.114;24.220;2022-09-09T15:36:26;9.07;;;6.25;;
55065;SDS011;40964;42.114;24.220;2022-09-09T15:38:53;8.80;;;6.35;;
55065;SDS011;40964;42.114;24.220;2022-09-09T15:41:20;8.35;;;6.47;;
55065;SDS011;40964;42.114;24.220;2022-09-09T15:43:47;11.75;;;6.95;;
55065;SDS011;40964;42.114;24.220;2022-09-09T15:48:56;10.27;;;7.40;;
55065;SDS011;40964;42.114;24.220;2022-09-09T15:51:23;10.43;;;6.25;;
55065;SDS011;40964;42.114;24.220;2022-09-09T15:53:54;13.95;;;6.45;;
55065;SDS011;40964;42.114;24.220;2022-09-09T15:56:21;7.35;;;6.22;;
55065;SDS011;40964;42.114;24.220;2022-09-09T15:58:47;11.32;;;6.50;;
55065;SDS011;40964;42.114;24.220;2022-09-09T16:01:12;13.50;;;6.30;;
55065;SDS011;40964;42.114;24.220;2022-09-09T16:03:39;10.75;;;7.10;;
55065;SDS011;40964;42.114;24.220;2022-09-09T16:06:11;9.85;;;7.00;;
55065;SDS011;40964;42.114;24.220;2022-09-09T16:08:39;8.73;;;5.90;;
55065;SDS011;40964;42.114;24.220;2022-09-09T16:13:37;11.88;;;6.15;;
55065;SDS011;40964;42.114;24.220;2022-09-09T16:16:03;7.97;;;5.85;;
55065;SDS011;40964;42.114;24.220;2022-09-09T16:18:35;27.73;;;7.20;;
55065;SDS011;40964;42.114;24.220;2022-09-09T16:21:44;14.38;;;6.50;;
55065;SDS011;40964;42.114;24.220;2022-09-09T16:24:05;9.60;;;6.13;;
55065;SDS011;40964;42.114;24.220;2022-09-09T16:26:32;39.47;;;7.95;;
55065;SDS011;40964;42.114;24.220;2022-09-09T16:29:00;9.68;;;5.63;;
55065;SDS011;40964;42.114;24.220;2022-09-09T16:31:27;19.90;;;6.53;;
55065;SDS011;40964;42.114;24.220;2022-09-09T16:33:53;17.27;;;6.07;;
55065;SDS011;40964;42.114;24.220;2022-09-09T16:36:20;22.10;;;7.22;;
55065;SDS011;40964;42.114;24.220;2022-09-09T16:38:54;24.48;;;6.47;;
55065;SDS011;40964;42.114;24.220;2022-09-09T16:41:22;20.92;;;6.93;;
55065;SDS011;40964;42.114;24.220;2022-09-09T16:43:52;17.92;;;7.20;;
55065;SDS011;40964;42.114;24.220;2022-09-09T16:46:22;14.27;;;6.43;;
55065;SDS011;40964;42.114;24.220;2022-09-09T16:48:49;18.42;;;5.68;;
55065;SDS011;40964;42.114;24.220;2022-09-09T16:51:19;25.08;;;7.95;;
55065;SDS011;40964;42.114;24.220;2022-09-09T16:53:48;9.43;;;5.43;;
55065;SDS011;40964;42.114;24.220;2022-09-09T16:56:17;16.42;;;6.10;;
55065;SDS011;40964;42.114;24.220;2022-09-09T16:58:49;8.57;;;5.57;;
55065;SDS011;40964;42.114;24.220;2022-09-09T17:01:16;15.73;;;6.03;;
55065;SDS011;40964;42.114;24.220;2022-09-09T17:03:41;10.75;;;5.70;;
55065;SDS011;40964;42.114;24.220;2022-09-09T17:06:14;11.32;;;6.05;;
55065;SDS011;40964;42.114;24.220;2022-09-09T17:08:40;18.60;;;5.50;;